Dades meteomassalio
Diari Summary for Octubre 6, 2017 Units:  English    Metric   Both
« Previous Day
Next Day »
Diari Semanal Mensual Anual Personalitzat
  Maxima: Minima: Mijana:
Temperatura: TemperatureC °F 12.8 °F 18.9 °F
Rosada: DewpointC °F 7.7 °F 10.4 °F
Humitat: Humidity % 43 % 58 %
Velocitat del vent: WindSpeedKMH mph 5.6 mph 24.3 mph
Racha vent: WindSpeedGustKMH mph - -
Vent:- - SSW
Pressio: PressurehPa in 1019.5 in -
Pluja: 0.0 in    
Historical Graphs
 
 
Tabular Data for Octubre 6, 2017
Time Temperature Dew Point Pressure Wind Wind Speed Wind Gust Humidity Rainfall Rate (Hourly) solar Conditions
TemperatureC °F DewpointC °F PressurehPa in Calm     Humidity % HourlyPrecipMM in SolarRadiationWatts/m^2 W/m2 Conditions
00:00 20.0 °F 12.2 °F 1021.6 in SSW 20.4 mph 20.4 mph 61 % 0.0 in 0.0 W/m2 CLR
00:05 20.0 °F 12.2 °F 1021.9 in South 20.4 mph 20.4 mph 61 % 0.0 in 0.0 W/m2 CLR
00:15 19.4 °F 11.9 °F 1021.9 in SSW 27.8 mph 27.8 mph 62 % 0.0 in 0.0 W/m2 CLR
00:20 19.4 °F 11.9 °F 1021.9 in SSW 20.4 mph 22.7 mph 62 % 0.0 in 0.0 W/m2 CLR
00:35 19.4 °F 12.2 °F 1021.9 in SW 29.6 mph 29.6 mph 63 % 0.0 in 0.0 W/m2 CLR
00:40 19.4 °F 12.2 °F 1021.9 in SW 29.6 mph 29.6 mph 63 % 0.0 in 0.0 W/m2 CLR
00:45 18.9 °F 11.9 °F 1021.9 in SSW 25.9 mph 25.9 mph 64 % 0.0 in 0.0 W/m2 CLR
00:50 18.9 °F 11.9 °F 1021.9 in SSW 20.4 mph 20.4 mph 64 % 0.0 in 0.0 W/m2 CLR
00:55 18.9 °F 11.9 °F 1021.9 in SSW 25.9 mph 25.9 mph 64 % 0.0 in 0.0 W/m2 CLR
01:00 18.9 °F 11.9 °F 1021.9 in SSW 24.1 mph 24.1 mph 64 % 0.0 in 0.0 W/m2 CLR
01:05 18.9 °F 12.2 °F 1021.9 in SW 18.5 mph 18.5 mph 65 % 0.0 in 0.0 W/m2 CLR
01:10 18.3 °F 11.6 °F 1021.6 in SW 22.2 mph 22.2 mph 65 % 0.0 in 0.0 W/m2 CLR
01:15 18.3 °F 11.6 °F 1021.9 in SSW 18.5 mph 18.5 mph 65 % 0.0 in 0.0 W/m2 CLR
01:20 18.3 °F 11.6 °F 1021.9 in SSW 22.2 mph 22.2 mph 65 % 0.0 in 0.0 W/m2 CLR
01:25 18.3 °F 11.6 °F 1021.9 in South 22.2 mph 22.2 mph 65 % 0.0 in 0.0 W/m2 CLR
01:30 18.3 °F 11.6 °F 1021.9 in SSW 14.8 mph 14.8 mph 65 % 0.0 in 0.0 W/m2 CLR
01:35 18.3 °F 11.6 °F 1021.6 in South 6.4 mph 6.4 mph 65 % 0.0 in 0.0 W/m2 CLR
01:40 17.8 °F 11.1 °F 1021.6 in South 11.1 mph 11.1 mph 65 % 0.0 in 0.0 W/m2 CLR
01:45 17.8 °F 11.3 °F 1021.6 in South 13.0 mph 13.0 mph 66 % 0.0 in 0.0 W/m2 CLR
01:55 17.2 °F 10.8 °F 1021.9 in SSW 13.0 mph 13.0 mph 66 % 0.0 in 0.0 W/m2 CLR
02:00 17.2 °F 10.8 °F 1021.9 in South 19.3 mph 19.3 mph 66 % 0.0 in 0.0 W/m2 CLR
02:05 17.2 °F 10.8 °F 1021.9 in South 18.5 mph 18.5 mph 66 % 0.0 in 0.0 W/m2 CLR
02:10 17.2 °F 10.8 °F 1021.9 in SSW 18.5 mph 18.5 mph 66 % 0.0 in 0.0 W/m2 CLR
02:11 17.2 °F 10.8 °F 1021.9 in SSW 18.5 mph 18.5 mph 66 % 0.0 in 0.0 W/m2 CLR
02:16 17.2 °F 10.8 °F 1021.9 in South 24.1 mph 24.1 mph 66 % 0.0 in 0.0 W/m2 CLR
02:21 17.8 °F 11.3 °F 1021.9 in SW 18.5 mph 18.5 mph 66 % 0.0 in 0.0 W/m2 CLR
02:31 17.8 °F 11.3 °F 1021.9 in SSW 31.5 mph 31.5 mph 66 % 0.0 in 0.0 W/m2 CLR
02:36 17.8 °F 11.6 °F 1021.9 in SSW 25.9 mph 25.9 mph 67 % 0.0 in 0.0 W/m2 CLR
02:41 17.8 °F 11.6 °F 1021.9 in SW 27.8 mph 27.8 mph 67 % 0.0 in 0.0 W/m2 CLR
02:46 17.8 °F 11.8 °F 1021.9 in SSW 22.5 mph 22.5 mph 68 % 0.0 in 0.0 W/m2 CLR
02:51 17.8 °F 11.8 °F 1021.9 in SW 31.5 mph 31.5 mph 68 % 0.0 in 0.0 W/m2 CLR
02:56 17.8 °F 11.8 °F 1021.9 in SSW 22.2 mph 22.2 mph 68 % 0.0 in 0.0 W/m2 CLR
03:01 17.8 °F 11.8 °F 1021.9 in South 22.2 mph 22.2 mph 68 % 0.0 in 0.0 W/m2 CLR
03:06 17.2 °F 11.3 °F 1021.9 in SSW 22.2 mph 22.2 mph 68 % 0.0 in 0.0 W/m2 CLR
03:11 17.2 °F 11.3 °F 1021.9 in SSW 18.5 mph 18.5 mph 68 % 0.0 in 0.0 W/m2 CLR
03:16 17.2 °F 11.5 °F 1021.9 in SSW 22.5 mph 22.5 mph 69 % 0.0 in 0.0 W/m2 CLR
03:21 17.2 °F 11.5 °F 1021.9 in South 18.5 mph 18.5 mph 69 % 0.0 in 0.0 W/m2 CLR
03:31 17.2 °F 11.5 °F 1021.9 in SSW 24.1 mph 24.1 mph 69 % 0.0 in 0.0 W/m2 CLR
03:36 17.2 °F 11.5 °F 1021.9 in SSW 16.7 mph 16.7 mph 69 % 0.0 in 0.0 W/m2 CLR
03:41 16.7 °F 10.9 °F 1021.9 in SSW 16.7 mph 16.7 mph 69 % 0.0 in 0.0 W/m2 CLR
03:46 16.7 °F 11.2 °F 1021.6 in SSW 16.7 mph 16.7 mph 70 % 0.0 in 0.0 W/m2 CLR
03:51 16.7 °F 11.2 °F 1021.6 in South 24.1 mph 24.1 mph 70 % 0.0 in 0.0 W/m2 CLR
03:56 16.7 °F 11.2 °F 1021.6 in South 18.5 mph 18.5 mph 70 % 0.0 in 0.0 W/m2 CLR
04:01 16.1 °F 10.6 °F 1021.6 in South 18.5 mph 18.5 mph 70 % 0.0 in 0.0 W/m2 CLR
04:06 16.1 °F 10.6 °F 1021.6 in SW 22.5 mph 22.5 mph 70 % 0.0 in 0.0 W/m2 CLR
04:08 16.1 °F 10.6 °F 1021.6 in South 22.5 mph 22.5 mph 70 % 0.0 in 0.0 W/m2 CLR
04:13 16.1 °F 10.6 °F 1021.6 in SSW 18.5 mph 18.5 mph 70 % 0.0 in 0.0 W/m2 CLR
04:18 16.1 °F 10.8 °F 1021.6 in SSW 16.7 mph 16.7 mph 71 % 0.0 in 0.0 W/m2 CLR
04:23 16.1 °F 10.8 °F 1021.6 in SSW 22.5 mph 22.5 mph 71 % 0.0 in 0.0 W/m2 CLR
04:33 16.1 °F 10.8 °F 1021.6 in SSW 18.5 mph 18.5 mph 71 % 0.0 in 0.0 W/m2 CLR
04:38 16.1 °F 10.8 °F 1021.6 in SSW 20.4 mph 20.4 mph 71 % 0.0 in 0.0 W/m2 CLR
04:43 16.1 °F 10.8 °F 1021.6 in SSW 18.5 mph 18.5 mph 71 % 0.0 in 0.0 W/m2 CLR
04:48 16.1 °F 10.8 °F 1021.6 in SSW 18.5 mph 18.5 mph 71 % 0.0 in 0.0 W/m2 CLR
04:53 16.1 °F 10.8 °F 1021.6 in SSW 16.7 mph 16.7 mph 71 % 0.0 in 0.0 W/m2 CLR
04:58 16.1 °F 10.8 °F 1021.6 in South 22.2 mph 22.2 mph 71 % 0.0 in 0.0 W/m2 CLR
05:03 16.1 °F 10.8 °F 1021.6 in SSW 16.7 mph 16.7 mph 71 % 0.0 in 0.0 W/m2 CLR
05:14 15.6 °F 10.5 °F 1021.6 in South 11.1 mph 11.1 mph 72 % 0.0 in 0.0 W/m2 CLR
05:19 15.6 °F 10.5 °F 1021.6 in South 11.1 mph 11.1 mph 72 % 0.0 in 0.0 W/m2 CLR
05:23 15.6 °F 10.5 °F 1021.6 in South 13.0 mph 13.0 mph 72 % 0.0 in 0.0 W/m2 CLR
05:24 15.6 °F 10.5 °F 1021.6 in SSW 14.5 mph 14.5 mph 72 % 0.0 in 0.0 W/m2 CLR
05:27 15.0 °F 10.0 °F 1021.6 in SSW 12.9 mph 12.9 mph 72 % 0.0 in 0.0 W/m2 CLR
05:32 15.0 °F 10.0 °F 1021.6 in South 18.5 mph 18.5 mph 72 % 0.0 in 0.0 W/m2 CLR
05:42 15.0 °F 10.0 °F 1021.6 in South 13.0 mph 13.0 mph 72 % 0.0 in 0.0 W/m2 CLR
05:47 15.0 °F 10.0 °F 1021.6 in South 9.3 mph 9.3 mph 72 % 0.0 in 0.0 W/m2 CLR
05:57 15.0 °F 10.0 °F 1021.6 in SSW 18.5 mph 18.5 mph 72 % 0.0 in 0.0 W/m2 CLR
06:02 15.0 °F 10.0 °F 1021.6 in SSW 24.1 mph 24.1 mph 72 % 0.0 in 0.0 W/m2 CLR
06:08 15.0 °F 10.0 °F 1021.6 in SSW 16.7 mph 16.7 mph 72 % 0.0 in 0.0 W/m2 CLR
06:13 15.0 °F 10.0 °F 1021.6 in South 20.4 mph 20.4 mph 72 % 0.0 in 0.0 W/m2 CLR
06:18 15.0 °F 10.0 °F 1021.6 in SSW 24.1 mph 24.1 mph 72 % 0.0 in 0.0 W/m2 CLR
06:23 15.6 °F 10.5 °F 1021.6 in SSW 20.4 mph 20.4 mph 72 % 0.0 in 0.0 W/m2 CLR
06:28 15.6 °F 10.5 °F 1021.6 in SSW 18.5 mph 18.5 mph 72 % 0.0 in 0.0 W/m2 CLR
06:33 15.6 °F 10.5 °F 1021.6 in SSW 18.5 mph 18.5 mph 72 % 0.0 in 0.0 W/m2 CLR
06:38 15.6 °F 10.5 °F 1021.6 in South 18.5 mph 18.5 mph 72 % 0.0 in 0.0 W/m2 CLR
06:43 15.0 °F 10.0 °F 1021.9 in South 16.7 mph 16.7 mph 72 % 0.0 in 0.0 W/m2 CLR
06:48 15.0 °F 10.0 °F 1021.6 in SW 16.7 mph 16.7 mph 72 % 0.0 in 0.0 W/m2 CLR
06:53 14.4 °F 9.4 °F 1021.6 in SSE 13.0 mph 13.0 mph 72 % 0.0 in 0.0 W/m2 CLR
06:58 14.4 °F 9.4 °F 1021.9 in South 9.3 mph 9.3 mph 72 % 0.0 in 0.0 W/m2 CLR
07:03 14.4 °F 9.4 °F 1021.9 in SSW 16.7 mph 16.7 mph 72 % 0.0 in 0.0 W/m2 CLR
07:08 14.4 °F 9.4 °F 1021.9 in SSW 14.8 mph 14.8 mph 72 % 0.0 in 0.0 W/m2 CLR
07:13 14.4 °F 9.4 °F 1021.9 in SSW 22.2 mph 22.2 mph 72 % 0.0 in 0.0 W/m2 CLR
07:18 14.4 °F 9.4 °F 1021.9 in South 5.6 mph 6.0 mph 72 % 0.0 in 0.0 W/m2 CLR
07:28 13.9 °F 8.9 °F 1021.9 in South 22.2 mph 22.2 mph 72 % 0.0 in 0.0 W/m2 CLR
07:33 13.9 °F 8.9 °F 1021.9 in SSE 14.8 mph 14.8 mph 72 % 0.0 in 0.0 W/m2 CLR
07:38 13.3 °F 8.4 °F 1021.9 in South 9.3 mph 9.3 mph 72 % 0.0 in 0.0 W/m2 CLR
07:43 13.3 °F 8.4 °F 1021.9 in South 18.5 mph 18.5 mph 72 % 0.0 in 0.0 W/m2 CLR
07:48 13.3 °F 8.4 °F 1021.9 in SSW 16.7 mph 16.7 mph 72 % 0.0 in 0.0 W/m2 CLR
07:53 13.3 °F 8.4 °F 1021.9 in South 9.3 mph 9.3 mph 72 % 0.0 in 0.0 W/m2 CLR
07:58 13.3 °F 8.4 °F 1021.9 in South 14.8 mph 14.8 mph 72 % 0.0 in 0.0 W/m2 CLR
08:03 13.3 °F 8.4 °F 1022.2 in South 7.4 mph 7.4 mph 72 % 0.0 in 5.0 W/m2 OVC
08:08 12.8 °F 7.8 °F 1022.2 in SSE 16.7 mph 16.7 mph 72 % 0.0 in 7.0 W/m2 BKN
08:13 12.8 °F 7.8 °F 1022.2 in South 14.8 mph 14.8 mph 72 % 0.0 in 11.0 W/m2 BKN
08:18 12.8 °F 7.7 °F 1022.2 in SSW 18.5 mph 18.5 mph 71 % 0.0 in 14.0 W/m2 BKN
08:23 12.8 °F 7.7 °F 1022.2 in SSW 16.7 mph 16.7 mph 71 % 0.0 in 16.0 W/m2 BKN
08:28 13.3 °F 8.2 °F 1022.2 in SSW 13.0 mph 13.0 mph 71 % 0.0 in 19.0 W/m2 BKN
08:33 13.3 °F 8.0 °F 1022.2 in South 14.8 mph 14.8 mph 70 % 0.0 in 28.0 W/m2 BKN
08:38 13.9 °F 8.5 °F 1022.2 in South 16.7 mph 16.7 mph 70 % 0.0 in 37.0 W/m2 BKN
08:43 13.9 °F 8.5 °F 1022.2 in South 11.3 mph 11.3 mph 70 % 0.0 in 49.0 W/m2 SCT
08:48 14.4 °F 9.1 °F 1022.2 in South 11.3 mph 11.3 mph 70 % 0.0 in 60.0 W/m2 SCT
08:53 14.4 °F 9.1 °F 1022.2 in South 20.4 mph 20.4 mph 70 % 0.0 in 76.0 W/m2 SCT
08:58 15.0 °F 9.3 °F 1022.2 in South 9.3 mph 9.3 mph 69 % 0.0 in 90.0 W/m2 CLR
09:03 15.0 °F 9.1 °F 1022.6 in South 18.5 mph 18.5 mph 68 % 0.0 in 95.0 W/m2 CLR
09:08 15.6 °F 9.7 °F 1022.2 in SSW 18.5 mph 18.5 mph 68 % 0.0 in 123.0 W/m2 CLR
09:13 15.6 °F 9.4 °F 1022.6 in SSW 25.9 mph 25.9 mph 67 % 0.0 in 120.0 W/m2 CLR
09:18 16.1 °F 10.0 °F 1022.6 in SSW 33.3 mph 33.3 mph 67 % 0.0 in 160.0 W/m2 CLR
09:23 16.1 °F 10.0 °F 1022.6 in SSW 20.4 mph 20.4 mph 67 % 0.0 in 172.0 W/m2 CLR
09:33 16.7 °F 10.3 °F 1022.6 in SSW 18.5 mph 18.5 mph 66 % 0.0 in 211.0 W/m2 CLR
09:38 16.7 °F 10.3 °F 1022.6 in SW 24.1 mph 24.1 mph 66 % 0.0 in 230.0 W/m2 CLR
09:48 16.7 °F 10.1 °F 1022.6 in SSW 31.5 mph 31.5 mph 65 % 0.0 in 260.0 W/m2 CLR
09:53 17.2 °F 10.6 °F 1022.6 in SSW 20.4 mph 20.4 mph 65 % 0.0 in 274.0 W/m2 CLR
10:03 17.2 °F 10.3 °F 1022.6 in SSW 30.6 mph 30.6 mph 64 % 0.0 in 304.0 W/m2 CLR
10:08 17.2 °F 10.3 °F 1022.6 in SSW 29.6 mph 29.6 mph 64 % 0.0 in 318.0 W/m2 CLR
10:13 17.2 °F 10.3 °F 1022.6 in SW 20.4 mph 20.4 mph 64 % 0.0 in 332.0 W/m2 CLR
10:18 17.8 °F 10.4 °F 1022.6 in SSW 27.8 mph 27.8 mph 62 % 0.0 in 346.0 W/m2 CLR
10:23 17.8 °F 10.4 °F 1022.9 in SW 27.8 mph 27.8 mph 62 % 0.0 in 364.0 W/m2 CLR
10:28 17.8 °F 10.4 °F 1022.9 in SSW 27.8 mph 27.8 mph 62 % 0.0 in 378.0 W/m2 CLR
10:33 17.8 °F 10.2 °F 1022.9 in SSW 22.2 mph 22.2 mph 61 % 0.0 in 392.0 W/m2 CLR
10:38 18.3 °F 10.7 °F 1022.9 in SW 25.9 mph 25.9 mph 61 % 0.0 in 404.0 W/m2 CLR
10:43 18.3 °F 10.7 °F 1022.9 in SSW 38.9 mph 38.9 mph 61 % 0.0 in 417.0 W/m2 CLR
10:48 18.3 °F 10.7 °F 1022.9 in SSW 30.6 mph 30.6 mph 61 % 0.0 in 432.0 W/m2 CLR
10:53 18.3 °F 10.7 °F 1022.9 in SW 31.5 mph 31.5 mph 61 % 0.0 in 443.0 W/m2 CLR
10:58 18.3 °F 10.4 °F 1022.9 in SW 25.9 mph 25.9 mph 60 % 0.0 in 452.0 W/m2 CLR
11:03 18.3 °F 10.2 °F 1022.9 in SW 22.2 mph 22.2 mph 59 % 0.0 in 466.0 W/m2 CLR
11:08 18.9 °F 10.4 °F 1022.9 in SSW 27.8 mph 27.8 mph 58 % 0.0 in 482.0 W/m2 CLR
11:13 18.9 °F 10.4 °F 1022.9 in SSW 27.4 mph 27.4 mph 58 % 0.0 in 494.0 W/m2 CLR
11:18 18.9 °F 10.4 °F 1022.9 in SSW 25.9 mph 25.9 mph 58 % 0.0 in 501.0 W/m2 CLR
11:19 18.9 °F 10.7 °F 1022.9 in South 18.5 mph 18.5 mph 59 % 0.0 in 504.0 W/m2 CLR
11:24 19.4 °F 10.9 °F 1022.9 in South 25.9 mph 25.9 mph 58 % 0.0 in 513.0 W/m2 CLR
11:29 19.4 °F 10.4 °F 1022.6 in SSW 33.3 mph 33.3 mph 56 % 0.0 in 527.0 W/m2 CLR
11:34 19.4 °F 10.4 °F 1022.6 in SSW 27.8 mph 27.8 mph 56 % 0.0 in 538.0 W/m2 CLR
11:39 19.4 °F 10.2 °F 1022.6 in South 29.6 mph 29.6 mph 55 % 0.0 in 550.0 W/m2 CLR
11:44 19.4 °F 10.4 °F 1022.6 in SSW 25.9 mph 25.9 mph 56 % 0.0 in 557.0 W/m2 CLR
11:49 19.4 °F 10.2 °F 1022.6 in SSW 29.6 mph 29.6 mph 55 % 0.0 in 568.0 W/m2 CLR
11:54 20.0 °F 10.7 °F 1022.6 in South 31.5 mph 31.5 mph 55 % 0.0 in 580.0 W/m2 CLR
11:59 20.0 °F 10.7 °F 1022.6 in South 29.6 mph 29.6 mph 55 % 0.0 in 585.0 W/m2 CLR
12:04 20.0 °F 10.4 °F 1022.6 in South 27.8 mph 27.8 mph 54 % 0.0 in 596.0 W/m2 CLR
12:09 20.6 °F 10.9 °F 1022.6 in SSW 29.6 mph 29.6 mph 54 % 0.0 in 601.0 W/m2 CLR
12:14 20.6 °F 10.7 °F 1022.6 in SSW 25.9 mph 25.9 mph 53 % 0.0 in 612.0 W/m2 CLR
12:19 20.6 °F 10.7 °F 1022.6 in WSW 27.4 mph 27.4 mph 53 % 0.0 in 613.0 W/m2 CLR
12:24 21.1 °F 10.9 °F 1022.6 in SW 29.6 mph 29.6 mph 52 % 0.0 in 622.0 W/m2 CLR
12:29 21.1 °F 10.9 °F 1022.6 in SW 24.1 mph 24.1 mph 52 % 0.0 in 631.0 W/m2 CLR
12:34 21.1 °F 11.2 °F 1022.6 in SW 24.1 mph 24.1 mph 53 % 0.0 in 635.0 W/m2 CLR
12:39 21.1 °F 10.9 °F 1022.2 in WSW 19.3 mph 19.3 mph 52 % 0.0 in 642.0 W/m2 CLR
12:44 21.7 °F 11.1 °F 1022.2 in SSW 24.1 mph 24.1 mph 51 % 0.0 in 649.0 W/m2 CLR
12:49 22.2 °F 11.6 °F 1022.2 in SW 27.8 mph 27.8 mph 51 % 0.0 in 654.0 W/m2 CLR
12:54 21.7 °F 10.8 °F 1022.2 in South 25.9 mph 25.9 mph 50 % 0.0 in 659.0 W/m2 CLR
13:00 21.7 °F 11.4 °F 1022.2 in SSW 24.1 mph 24.1 mph 52 % 0.0 in 663.0 W/m2 CLR
13:04 22.2 °F 11.9 °F 1021.9 in SW 29.6 mph 29.6 mph 52 % 0.0 in 663.0 W/m2 CLR
13:09 22.2 °F 11.3 °F 1021.9 in SW 33.3 mph 33.3 mph 50 % 0.0 in 666.0 W/m2 CLR
13:15 22.2 °F 11.6 °F 1021.9 in SW 29.6 mph 29.6 mph 51 % 0.0 in 668.0 W/m2 CLR
13:20 22.2 °F 11.6 °F 1021.9 in WSW 25.9 mph 25.9 mph 51 % 0.0 in 670.0 W/m2 CLR
13:25 22.8 °F 11.8 °F 1021.9 in SSW 27.8 mph 27.8 mph 50 % 0.0 in 675.0 W/m2 CLR
13:30 22.2 °F 11.6 °F 1021.9 in SW 22.2 mph 22.2 mph 51 % 0.0 in 673.0 W/m2 CLR
13:35 22.8 °F 11.5 °F 1021.9 in SW 31.5 mph 31.5 mph 49 % 0.0 in 677.0 W/m2 CLR
13:40 22.8 °F 11.5 °F 1021.9 in SW 29.6 mph 29.6 mph 49 % 0.0 in 680.0 W/m2 CLR
13:45 22.8 °F 11.5 °F 1021.6 in SW 31.5 mph 31.5 mph 49 % 0.0 in 679.0 W/m2 CLR
13:50 22.8 °F 11.5 °F 1021.6 in SSW 31.5 mph 31.5 mph 49 % 0.0 in 679.0 W/m2 CLR
13:55 22.8 °F 11.5 °F 1021.6 in SSW 25.9 mph 25.9 mph 49 % 0.0 in 679.0 W/m2 CLR
14:00 23.3 °F 12.0 °F 1021.6 in SW 30.6 mph 30.6 mph 49 % 0.0 in 680.0 W/m2 CLR
14:05 23.3 °F 12.0 °F 1021.2 in South 25.7 mph 25.7 mph 49 % 0.0 in 679.0 W/m2 CLR
14:10 23.3 °F 12.0 °F 1021.2 in SW 32.2 mph 32.8 mph 49 % 0.0 in 679.0 W/m2 CLR
14:15 23.9 °F 12.5 °F 1021.2 in SW 31.5 mph 31.5 mph 49 % 0.0 in 677.0 W/m2 CLR
14:20 23.3 °F 12.0 °F 1021.2 in SSW 29.6 mph 29.6 mph 49 % 0.0 in 671.0 W/m2 CLR
14:30 23.9 °F 12.2 °F 1020.9 in SW 33.8 mph 33.8 mph 48 % 0.0 in 666.0 W/m2 CLR
14:35 23.9 °F 12.2 °F 1020.9 in SW 31.5 mph 31.5 mph 48 % 0.0 in 664.0 W/m2 CLR
14:40 23.9 °F 12.2 °F 1020.9 in SSW 24.1 mph 24.1 mph 48 % 0.0 in 661.0 W/m2 CLR
14:45 23.9 °F 12.2 °F 1020.9 in SSW 27.8 mph 27.8 mph 48 % 0.0 in 654.0 W/m2 CLR
14:50 23.9 °F 11.9 °F 1020.5 in SSW 31.5 mph 31.5 mph 47 % 0.0 in 650.0 W/m2 CLR
14:55 23.9 °F 11.9 °F 1020.5 in WSW 27.8 mph 27.8 mph 47 % 0.0 in 647.0 W/m2 CLR
15:05 23.9 °F 11.6 °F 1020.5 in SW 24.1 mph 24.1 mph 46 % 0.0 in 633.0 W/m2 CLR
15:07 23.9 °F 11.6 °F 1020.5 in SSW 24.1 mph 24.1 mph 46 % 0.0 in 631.0 W/m2 CLR
15:12 23.9 °F 11.6 °F 1020.2 in SSW 35.2 mph 35.2 mph 46 % 0.0 in 624.0 W/m2 CLR
15:17 24.4 °F 12.1 °F 1020.2 in SSW 31.5 mph 31.5 mph 46 % 0.0 in 617.0 W/m2 CLR
15:22 23.9 °F 11.6 °F 1020.5 in SW 24.1 mph 24.1 mph 46 % 0.0 in 612.0 W/m2 CLR
15:27 24.4 °F 11.7 °F 1020.2 in SSW 33.3 mph 33.3 mph 45 % 0.0 in 605.0 W/m2 CLR
15:32 23.9 °F 11.6 °F 1020.2 in WSW 22.5 mph 22.5 mph 46 % 0.0 in 596.0 W/m2 CLR
15:37 23.9 °F 11.6 °F 1020.2 in SW 31.5 mph 31.5 mph 46 % 0.0 in 589.0 W/m2 CLR
15:42 24.4 °F 12.1 °F 1020.2 in SW 29.6 mph 29.6 mph 46 % 0.0 in 577.0 W/m2 CLR
15:47 24.4 °F 11.7 °F 1020.2 in SSW 33.8 mph 33.8 mph 45 % 0.0 in 570.0 W/m2 CLR
15:52 24.4 °F 11.7 °F 1019.9 in SSW 31.5 mph 31.5 mph 45 % 0.0 in 564.0 W/m2 CLR
15:57 24.4 °F 11.7 °F 1019.9 in SW 25.9 mph 25.9 mph 45 % 0.0 in 554.0 W/m2 CLR
16:02 24.4 °F 11.7 °F 1019.9 in SW 37.0 mph 37.0 mph 45 % 0.0 in 541.0 W/m2 CLR
16:07 24.4 °F 11.7 °F 1019.9 in WSW 31.5 mph 31.5 mph 45 % 0.0 in 533.0 W/m2 CLR
16:12 24.4 °F 11.4 °F 1019.9 in SW 31.5 mph 31.5 mph 44 % 0.0 in 524.0 W/m2 CLR
16:17 24.4 °F 11.4 °F 1019.9 in SSW 27.8 mph 27.8 mph 44 % 0.0 in 512.0 W/m2 CLR
16:22 25.0 °F 11.9 °F 1019.9 in SSW 22.2 mph 22.2 mph 44 % 0.0 in 503.0 W/m2 CLR
16:27 25.0 °F 11.6 °F 1019.5 in SW 33.3 mph 33.3 mph 43 % 0.0 in 490.0 W/m2 CLR
16:32 24.4 °F 11.4 °F 1019.5 in SSW 27.8 mph 27.8 mph 44 % 0.0 in 475.0 W/m2 CLR
16:37 24.4 °F 11.4 °F 1019.5 in SW 37.0 mph 37.0 mph 44 % 0.0 in 468.0 W/m2 CLR
16:42 24.4 °F 11.4 °F 1019.5 in SSW 25.7 mph 25.7 mph 44 % 0.0 in 457.0 W/m2 CLR
16:52 25.0 °F 12.2 °F 1019.5 in WSW 35.2 mph 35.2 mph 45 % 0.0 in 425.0 W/m2 CLR
16:57 25.0 °F 12.2 °F 1019.5 in SW 25.9 mph 25.9 mph 45 % 0.0 in 411.0 W/m2 CLR
17:02 25.0 °F 12.2 °F 1019.5 in South 29.6 mph 29.6 mph 45 % 0.0 in 397.0 W/m2 CLR
17:07 24.4 °F 11.7 °F 1019.5 in SSW 35.2 mph 35.2 mph 45 % 0.0 in 385.0 W/m2 CLR
17:12 24.4 °F 11.7 °F 1019.5 in SW 35.2 mph 35.2 mph 45 % 0.0 in 371.0 W/m2 CLR
17:17 24.4 °F 12.1 °F 1019.5 in SW 35.4 mph 35.4 mph 46 % 0.0 in 355.0 W/m2 CLR
17:22 24.4 °F 11.7 °F 1019.5 in WSW 42.6 mph 42.6 mph 45 % 0.0 in 338.0 W/m2 CLR
17:27 24.4 °F 12.1 °F 1019.5 in SW 40.7 mph 40.7 mph 46 % 0.0 in 325.0 W/m2 CLR
17:32 24.4 °F 12.1 °F 1019.5 in SSW 31.5 mph 31.5 mph 46 % 0.0 in 308.0 W/m2 CLR
17:37 24.4 °F 12.1 °F 1019.5 in WSW 38.9 mph 38.9 mph 46 % 0.0 in 294.0 W/m2 CLR
17:42 23.9 °F 11.6 °F 1019.5 in WSW 32.2 mph 32.2 mph 46 % 0.0 in 278.0 W/m2 CLR
17:47 23.9 °F 11.9 °F 1019.5 in SW 27.8 mph 27.8 mph 47 % 0.0 in 265.0 W/m2 CLR
17:52 23.9 °F 11.9 °F 1019.5 in WSW 30.6 mph 30.6 mph 47 % 0.0 in 248.0 W/m2 CLR
17:57 23.3 °F 11.4 °F 1019.5 in SW 24.1 mph 24.1 mph 47 % 0.0 in 234.0 W/m2 CLR
18:02 23.3 °F 11.4 °F 1019.5 in SW 38.9 mph 38.9 mph 47 % 0.0 in 214.0 W/m2 CLR
18:07 23.3 °F 11.4 °F 1019.5 in WSW 29.6 mph 29.6 mph 47 % 0.0 in 195.0 W/m2 CLR
18:13 23.3 °F 11.4 °F 1019.5 in SW 31.5 mph 31.5 mph 47 % 0.0 in 181.0 W/m2 CLR
18:17 23.3 °F 11.4 °F 1019.5 in SSW 31.5 mph 31.5 mph 47 % 0.0 in 158.0 W/m2 CLR
18:22 23.3 °F 11.4 °F 1019.5 in SW 20.9 mph 20.9 mph 47 % 0.0 in 139.0 W/m2 CLR
18:27 22.8 °F 10.9 °F 1019.5 in WSW 35.2 mph 35.2 mph 47 % 0.0 in 121.0 W/m2 CLR
18:32 22.8 °F 10.9 °F 1019.9 in WSW 37.0 mph 37.0 mph 47 % 0.0 in 109.0 W/m2 CLR
18:38 22.8 °F 10.9 °F 1019.9 in WSW 22.2 mph 22.2 mph 47 % 0.0 in 95.0 W/m2 CLR
18:43 22.8 °F 10.9 °F 1019.9 in WSW 31.5 mph 31.5 mph 47 % 0.0 in 72.0 W/m2 FEW
18:48 22.2 °F 10.4 °F 1019.9 in West 24.1 mph 25.4 mph 47 % 0.0 in 62.0 W/m2 SCT
18:53 22.2 °F 10.7 °F 1019.9 in SW 18.5 mph 18.5 mph 48 % 0.0 in 53.0 W/m2 SCT
18:58 22.2 °F 10.7 °F 1019.9 in SW 22.5 mph 22.5 mph 48 % 0.0 in 40.0 W/m2 BKN
19:08 21.7 °F 10.5 °F 1020.2 in WSW 24.1 mph 24.1 mph 49 % 0.0 in 23.0 W/m2 BKN
19:13 21.7 °F 10.5 °F 1020.2 in SSW 31.5 mph 31.5 mph 49 % 0.0 in 18.0 W/m2 BKN
19:18 21.1 °F 10.3 °F 1020.2 in SW 22.2 mph 22.2 mph 50 % 0.0 in 14.0 W/m2 BKN
19:23 21.1 °F 10.6 °F 1020.2 in SW 25.9 mph 25.9 mph 51 % 0.0 in 11.0 W/m2 BKN
19:28 21.1 °F 10.6 °F 1020.2 in SSW 27.8 mph 27.8 mph 51 % 0.0 in 7.0 W/m2 BKN
19:33 21.1 °F 10.6 °F 1020.2 in WSW 27.8 mph 27.8 mph 51 % 0.0 in 5.0 W/m2 OVC
19:38 21.1 °F 10.6 °F 1020.2 in West 31.5 mph 31.5 mph 51 % 0.0 in 0.0 W/m2 OVC
19:43 20.6 °F 10.1 °F 1020.5 in SW 25.9 mph 25.9 mph 51 % 0.0 in 0.0 W/m2 OVC
19:48 20.6 °F 10.1 °F 1020.5 in WSW 18.5 mph 18.5 mph 51 % 0.0 in 0.0 W/m2 CLR
19:53 20.6 °F 10.1 °F 1020.5 in SW 22.2 mph 22.2 mph 51 % 0.0 in 0.0 W/m2 CLR
19:58 20.6 °F 10.1 °F 1020.5 in WSW 25.9 mph 25.9 mph 51 % 0.0 in 0.0 W/m2 CLR
20:03 20.0 °F 9.8 °F 1020.9 in SW 24.1 mph 24.1 mph 52 % 0.0 in 0.0 W/m2 CLR
20:08 20.0 °F 9.8 °F 1020.9 in SW 33.3 mph 33.3 mph 52 % 0.0 in 0.0 W/m2 CLR
20:13 20.0 °F 9.8 °F 1020.9 in SW 29.6 mph 29.6 mph 52 % 0.0 in 0.0 W/m2 CLR
20:18 20.0 °F 9.8 °F 1020.9 in SW 33.3 mph 33.3 mph 52 % 0.0 in 0.0 W/m2 CLR
20:23 20.0 °F 9.8 °F 1021.2 in SW 40.2 mph 40.2 mph 52 % 0.0 in 0.0 W/m2 CLR
20:28 19.4 °F 9.3 °F 1021.2 in SW 31.5 mph 31.5 mph 52 % 0.0 in 0.0 W/m2 CLR
20:33 19.4 °F 9.3 °F 1021.2 in WSW 29.6 mph 29.6 mph 52 % 0.0 in 0.0 W/m2 CLR
20:38 19.4 °F 9.1 °F 1021.2 in SW 29.6 mph 29.6 mph 51 % 0.0 in 0.0 W/m2 CLR
20:43 19.4 °F 9.1 °F 1021.2 in SSW 31.5 mph 31.5 mph 51 % 0.0 in 0.0 W/m2 CLR
20:48 18.9 °F 8.5 °F 1021.6 in SW 22.2 mph 22.2 mph 51 % 0.0 in 0.0 W/m2 CLR
20:53 18.9 °F 8.5 °F 1021.6 in SW 29.6 mph 29.6 mph 51 % 0.0 in 0.0 W/m2 CLR
20:58 18.9 °F 8.5 °F 1021.6 in SW 33.3 mph 33.3 mph 51 % 0.0 in 0.0 W/m2 CLR
21:03 18.9 °F 8.5 °F 1021.6 in SSW 31.5 mph 31.5 mph 51 % 0.0 in 0.0 W/m2 CLR
21:08 18.9 °F 8.5 °F 1021.6 in SSW 29.6 mph 29.6 mph 51 % 0.0 in 0.0 W/m2 CLR
21:13 18.3 °F 8.3 °F 1021.6 in SW 31.5 mph 31.5 mph 52 % 0.0 in 0.0 W/m2 CLR
21:18 18.3 °F 8.3 °F 1021.9 in SSW 25.7 mph 25.7 mph 52 % 0.0 in 0.0 W/m2 CLR
21:23 18.3 °F 8.3 °F 1021.6 in SW 35.2 mph 35.2 mph 52 % 0.0 in 0.0 W/m2 CLR
21:28 18.3 °F 8.3 °F 1021.9 in SSW 25.9 mph 25.9 mph 52 % 0.0 in 0.0 W/m2 CLR
21:33 18.3 °F 8.6 °F 1021.9 in SSW 24.1 mph 24.1 mph 53 % 0.0 in 0.0 W/m2 CLR
21:43 17.8 °F 8.3 °F 1021.9 in SSW 29.6 mph 29.6 mph 54 % 0.0 in 0.0 W/m2 CLR
21:48 17.8 °F 8.3 °F 1021.9 in SSW 29.6 mph 29.6 mph 54 % 0.0 in 0.0 W/m2 CLR
21:53 17.8 °F 8.1 °F 1021.9 in SSW 31.5 mph 31.5 mph 53 % 0.0 in 0.0 W/m2 CLR
21:58 17.8 °F 8.1 °F 1022.2 in SSW 31.5 mph 31.5 mph 53 % 0.0 in 0.0 W/m2 CLR
22:03 17.8 °F 8.1 °F 1022.2 in SSW 27.8 mph 27.8 mph 53 % 0.0 in 0.0 W/m2 CLR
22:08 17.8 °F 8.1 °F 1022.2 in SSW 29.6 mph 29.6 mph 53 % 0.0 in 0.0 W/m2 CLR
22:13 17.2 °F 7.8 °F 1022.2 in South 22.2 mph 22.2 mph 54 % 0.0 in 0.0 W/m2 CLR
22:18 17.2 °F 8.1 °F 1022.6 in SSW 16.7 mph 16.7 mph 55 % 0.0 in 0.0 W/m2 CLR
22:23 17.2 °F 8.1 °F 1022.6 in SSW 25.7 mph 25.7 mph 55 % 0.0 in 0.0 W/m2 CLR
22:28 17.2 °F 8.1 °F 1022.6 in South 17.7 mph 17.7 mph 55 % 0.0 in 0.0 W/m2 CLR
22:33 17.2 °F 8.1 °F 1022.6 in SSW 24.1 mph 24.1 mph 55 % 0.0 in 0.0 W/m2 CLR
22:38 17.2 °F 8.1 °F 1022.6 in South 31.5 mph 31.5 mph 55 % 0.0 in 0.0 W/m2 CLR
22:43 17.2 °F 8.4 °F 1022.6 in South 24.1 mph 24.1 mph 56 % 0.0 in 0.0 W/m2 CLR
22:48 16.7 °F 7.8 °F 1022.6 in SSW 20.4 mph 20.4 mph 56 % 0.0 in 0.0 W/m2 CLR
22:53 16.7 °F 8.1 °F 1022.6 in SSW 18.5 mph 18.5 mph 57 % 0.0 in 0.0 W/m2 CLR
22:58 16.7 °F 8.1 °F 1022.6 in SSW 18.5 mph 18.5 mph 57 % 0.0 in 0.0 W/m2 CLR
23:03 16.7 °F 8.1 °F 1022.6 in SSW 27.8 mph 27.8 mph 57 % 0.0 in 0.0 W/m2 CLR
23:08 16.7 °F 8.3 °F 1022.6 in South 27.8 mph 27.8 mph 58 % 0.0 in 0.0 W/m2 CLR
23:13 16.1 °F 7.8 °F 1022.9 in South 24.1 mph 24.1 mph 58 % 0.0 in 0.0 W/m2 CLR
23:18 16.1 °F 7.8 °F 1022.6 in SSW 20.4 mph 20.4 mph 58 % 0.0 in 0.0 W/m2 CLR
23:23 16.1 °F 7.8 °F 1022.9 in South 27.8 mph 27.8 mph 58 % 0.0 in 0.0 W/m2 CLR
23:28 16.1 °F 7.8 °F 1022.9 in SSW 18.5 mph 18.5 mph 58 % 0.0 in 0.0 W/m2 CLR
23:33 16.1 °F 7.8 °F 1022.9 in SSW 24.1 mph 24.1 mph 58 % 0.0 in 0.0 W/m2 CLR
23:38 16.1 °F 7.8 °F 1023.2 in SW 20.4 mph 20.4 mph 58 % 0.0 in 0.0 W/m2 CLR
23:43 16.1 °F 7.8 °F 1023.2 in SW 31.5 mph 31.5 mph 58 % 0.0 in 0.0 W/m2 CLR
23:53 16.1 °F 7.8 °F 1023.2 in SSW 22.2 mph 23.3 mph 58 % 0.0 in 0.0 W/m2 CLR
23:58 16.1 °F 7.8 °F 1023.2 in South 25.9 mph 25.9 mph 58 % 0.0 in 0.0 W/m2 CLR
Lo Temps de Massalio
Compliments of Weather Underground - 1.25 mb